createdAt,value
2022-10-28T00:00:35.224Z,25.22
2022-10-28T00:01:57.424Z,24.88
2022-10-28T00:03:03.688Z,24.67
2022-10-28T00:04:06.287Z,24.56
2022-10-28T00:05:08.918Z,22.40
2022-10-28T00:06:32.547Z,21.78
2022-10-28T00:07:34.274Z,22.63
2022-10-28T00:08:36.547Z,21.75
2022-10-28T00:09:38.254Z,22.21
2022-10-28T00:10:40.139Z,22.13
2022-10-28T00:11:41.832Z,22.05
2022-10-28T00:12:43.485Z,22.05
2022-10-28T00:13:45.804Z,22.14
2022-10-28T00:14:47.482Z,23.10
2022-10-28T00:15:49.128Z,22.72
2022-10-28T00:16:51.193Z,22.21
2022-10-28T00:17:54.118Z,21.59
2022-10-28T00:18:59.107Z,21.76
2022-10-28T00:20:01.103Z,21.19
2022-10-28T00:21:06.226Z,20.83
2022-10-28T00:22:07.911Z,21.28
2022-10-28T00:23:09.578Z,21.37
2022-10-28T00:24:13.382Z,20.69
2022-10-28T00:25:15.263Z,19.68
2022-10-28T00:26:22.997Z,19.53
2022-10-28T00:27:24.648Z,20.87
2022-10-28T00:28:26.260Z,19.88
2022-10-28T00:29:27.884Z,18.91
2022-10-28T00:31:37.747Z,19.24
2022-10-28T00:32:39.379Z,20.92
2022-10-28T00:33:41.826Z,19.93
2022-10-28T00:34:43.490Z,19.76
2022-10-28T00:35:45.234Z,19.91
2022-10-28T00:36:48.320Z,19.40
2022-10-28T00:37:53.207Z,19.78
2022-10-28T00:38:56.424Z,19.83
2022-10-28T00:39:58.049Z,19.76
2022-10-28T00:40:59.900Z,20.64
2022-10-28T00:42:04.655Z,19.97
2022-10-28T00:43:06.447Z,19.51
2022-10-28T00:44:42.104Z,20.96
2022-10-28T00:45:43.810Z,20.43
2022-10-28T00:46:49.212Z,19.84
2022-10-28T00:47:57.552Z,20.45
2022-10-28T00:49:18.290Z,19.64
2022-10-28T00:50:43.907Z,20.64
2022-10-28T00:51:52.722Z,20.59
2022-10-28T00:53:01.866Z,21.24
2022-10-28T00:54:06.271Z,19.42
2022-10-28T00:55:09.074Z,19.55
2022-10-28T00:56:12.983Z,19.92
2022-10-28T00:57:19.215Z,20.31
2022-10-28T00:58:25.715Z,19.94
2022-10-28T00:59:33.867Z,19.11
2022-10-28T01:00:35.576Z,19.22
2022-10-28T01:01:37.613Z,19.65
2022-10-28T01:02:46.663Z,20.41
2022-10-28T01:03:48.484Z,20.47
2022-10-28T01:04:51.123Z,20.31
2022-10-28T01:05:53.497Z,19.82
2022-10-28T01:06:56.329Z,20.07
2022-10-28T01:08:01.259Z,20.58
2022-10-28T01:09:03.328Z,20.11
2022-10-28T01:10:07.106Z,20.14
2022-10-28T01:11:33.694Z,20.27
2022-10-28T01:13:11.286Z,20.17
2022-10-28T01:14:41.970Z,19.36
2022-10-28T01:16:01.320Z,18.83
2022-10-28T01:17:14.941Z,19.06
2022-10-28T01:18:35.747Z,19.01
2022-10-28T01:20:18.848Z,19.65
2022-10-28T01:21:57.585Z,19.63
2022-10-28T01:23:16.252Z,19.40
2022-10-28T01:24:37.581Z,19.75
2022-10-28T01:26:36.583Z,19.17
2022-10-28T01:27:55.358Z,18.64
2022-10-28T01:29:28.156Z,19.18
2022-10-28T01:30:53.827Z,19.74
2022-10-28T01:32:18.553Z,19.92
2022-10-28T01:34:02.858Z,20.06
2022-10-28T01:35:13.492Z,20.49
2022-10-28T01:36:38.808Z,20.03
2022-10-28T01:37:48.664Z,20.64
2022-10-28T01:38:58.495Z,21.39
2022-10-28T01:40:12.218Z,21.31
2022-10-28T01:41:33.794Z,20.54
2022-10-28T01:42:55.673Z,21.13
2022-10-28T01:44:09.191Z,22.23
2022-10-28T01:45:35.726Z,25.37
2022-10-28T01:46:47.347Z,26.70
2022-10-28T01:48:02.956Z,26.87
2022-10-28T01:49:14.159Z,26.15
2022-10-28T01:50:22.603Z,25.81
2022-10-28T01:51:38.010Z,27.73
2022-10-28T01:52:44.106Z,24.94
2022-10-28T01:53:51.306Z,23.00
2022-10-28T01:55:01.407Z,22.57
2022-10-28T01:56:09.696Z,21.68
2022-10-28T01:57:16.143Z,21.87
2022-10-28T01:58:23.559Z,21.83
2022-10-28T01:59:29.768Z,21.15
2022-10-28T02:00:34.532Z,21.00
2022-10-28T02:01:36.824Z,21.40
2022-10-28T02:02:41.198Z,20.81
2022-10-28T02:03:42.944Z,21.23
2022-10-28T02:04:44.641Z,21.69
2022-10-28T02:05:49.158Z,21.15
2022-10-28T02:06:55.797Z,20.51
2022-10-28T02:08:07.014Z,20.97
2022-10-28T02:09:34.041Z,20.36
2022-10-28T02:10:46.085Z,21.49
2022-10-28T02:12:12.482Z,21.65
2022-10-28T02:13:16.236Z,20.88
2022-10-28T02:14:36.690Z,21.98
2022-10-28T02:15:51.377Z,21.65
2022-10-28T02:17:10.465Z,21.37
2022-10-28T02:18:40.939Z,21.44
2022-10-28T02:19:57.641Z,21.36
2022-10-28T02:21:11.074Z,21.40
2022-10-28T02:22:24.815Z,21.18
2022-10-28T02:23:34.024Z,21.19
2022-10-28T02:24:47.433Z,20.55
2022-10-28T02:26:20.922Z,20.23
2022-10-28T02:27:56.413Z,20.73
2022-10-28T02:29:28.336Z,21.31
2022-10-28T02:30:42.291Z,21.10
2022-10-28T02:32:00.096Z,21.25
2022-10-28T02:33:06.480Z,21.71
2022-10-28T02:34:17.304Z,20.85
2022-10-28T02:35:30.452Z,22.11
2022-10-28T02:36:40.050Z,20.96
2022-10-28T02:37:46.759Z,21.42
2022-10-28T02:38:58.169Z,20.99
2022-10-28T02:40:09.984Z,20.77
2022-10-28T02:41:26.905Z,20.17
2022-10-28T02:42:38.050Z,20.44
2022-10-28T02:43:44.211Z,19.98
2022-10-28T02:44:53.413Z,21.69
2022-10-28T02:46:00.575Z,22.10
2022-10-28T02:47:13.826Z,21.40
2022-10-28T02:48:26.345Z,21.59
2022-10-28T02:49:32.211Z,22.73
2022-10-28T02:50:39.692Z,22.42
2022-10-28T02:51:52.310Z,22.19
2022-10-28T02:52:59.159Z,23.58
2022-10-28T02:54:13.298Z,23.05
2022-10-28T02:55:15.270Z,23.84
2022-10-28T02:56:21.349Z,23.09
2022-10-28T02:57:26.784Z,22.31
2022-10-28T02:58:29.503Z,23.74
2022-10-28T02:59:31.128Z,24.28
2022-10-28T03:00:32.836Z,25.09
2022-10-28T03:01:34.598Z,24.97
2022-10-28T03:02:36.839Z,24.60
2022-10-28T03:03:38.581Z,24.56
2022-10-28T03:04:40.249Z,24.27
2022-10-28T03:05:41.915Z,23.66
2022-10-28T03:06:43.559Z,24.59
2022-10-28T03:07:45.219Z,23.77
2022-10-28T03:08:47.056Z,23.36
2022-10-28T03:09:48.727Z,23.28
2022-10-28T03:10:50.349Z,24.69
2022-10-28T03:11:52.123Z,23.22
2022-10-28T03:12:53.775Z,22.89
2022-10-28T03:13:55.489Z,24.33
2022-10-28T03:14:57.078Z,23.99
2022-10-28T03:15:58.673Z,23.62
2022-10-28T03:17:00.313Z,23.62
2022-10-28T03:18:01.989Z,23.79
2022-10-28T03:19:03.725Z,23.97
2022-10-28T03:20:05.951Z,23.87
2022-10-28T03:21:07.852Z,25.08
2022-10-28T03:22:09.505Z,24.21
2022-10-28T03:23:11.158Z,23.99
2022-10-28T03:24:12.888Z,23.41
2022-10-28T03:25:14.614Z,23.04
2022-10-28T03:26:16.264Z,23.23
2022-10-28T03:27:17.928Z,23.03
2022-10-28T03:28:20.205Z,22.99
2022-10-28T03:29:21.940Z,23.71
2022-10-28T03:30:23.648Z,25.32
2022-10-28T03:31:25.300Z,26.32
2022-10-28T03:32:27.046Z,29.21
2022-10-28T03:33:28.691Z,31.72
2022-10-28T03:34:30.327Z,32.94
2022-10-28T03:35:31.983Z,31.42
2022-10-28T03:36:33.703Z,29.21
2022-10-28T03:37:35.892Z,27.35
2022-10-28T03:38:37.543Z,26.71
2022-10-28T03:39:39.387Z,26.69
2022-10-28T03:40:41.057Z,26.24
2022-10-28T03:41:42.711Z,25.33
2022-10-28T03:42:44.473Z,23.62
2022-10-28T03:43:46.216Z,24.85
2022-10-28T03:44:47.952Z,23.70
2022-10-28T03:45:49.598Z,25.32
2022-10-28T03:46:51.280Z,24.85
2022-10-28T03:47:53.362Z,25.48
2022-10-28T03:48:55.282Z,24.61
2022-10-28T03:49:56.907Z,24.22
2022-10-28T03:50:58.559Z,26.01
2022-10-28T03:52:00.201Z,24.93
2022-10-28T03:53:01.964Z,24.60
2022-10-28T03:54:03.728Z,25.74
2022-10-28T03:55:05.770Z,25.50
2022-10-28T03:56:08.670Z,24.77
2022-10-28T03:57:10.392Z,24.60
2022-10-28T03:58:12.042Z,24.14
2022-10-28T03:59:16.348Z,24.84
2022-10-28T04:00:21.301Z,26.07
2022-10-28T04:01:23.113Z,23.91
2022-10-28T04:02:24.895Z,24.80
2022-10-28T04:03:26.847Z,24.99
2022-10-28T04:04:30.784Z,24.04
2022-10-28T04:05:32.703Z,23.87
2022-10-28T04:06:34.335Z,24.01
2022-10-28T04:07:36.014Z,25.04
2022-10-28T04:08:37.974Z,25.37
2022-10-28T04:09:39.652Z,24.01
2022-10-28T04:10:46.247Z,24.45
2022-10-28T04:11:51.906Z,24.29
2022-10-28T04:12:54.150Z,23.62
2022-10-28T04:13:56.010Z,25.39
2022-10-28T04:14:57.657Z,25.96
2022-10-28T04:15:59.614Z,25.16
2022-10-28T04:17:01.286Z,26.09
2022-10-28T04:18:03.948Z,25.94
2022-10-28T04:19:05.628Z,25.94
2022-10-28T04:20:08.240Z,26.63
2022-10-28T04:21:09.954Z,27.74
2022-10-28T04:22:11.726Z,29.14
2022-10-28T04:23:16.320Z,30.47
2022-10-28T04:24:18.023Z,30.99
2022-10-28T04:25:19.646Z,32.33
2022-10-28T04:26:21.352Z,33.06
2022-10-28T04:27:23.055Z,33.55
2022-10-28T04:28:24.762Z,34.20
2022-10-28T04:29:26.429Z,35.07
2022-10-28T04:30:28.073Z,35.51
2022-10-28T04:31:29.833Z,37.35
2022-10-28T04:32:31.629Z,41.19
2022-10-28T04:33:33.327Z,44.68
2022-10-28T04:34:34.995Z,45.25
2022-10-28T04:35:39.195Z,44.43
2022-10-28T04:36:40.876Z,43.43
2022-10-28T04:37:42.580Z,40.58
2022-10-28T04:38:44.545Z,36.90
2022-10-28T04:39:46.191Z,32.03
2022-10-28T04:40:49.174Z,31.54
2022-10-28T04:41:50.863Z,31.57
2022-10-28T04:42:52.664Z,30.50
2022-10-28T04:43:56.298Z,29.57
2022-10-28T04:44:58.348Z,30.93
2022-10-28T04:46:05.868Z,30.54
2022-10-28T04:47:08.026Z,29.14
2022-10-28T04:48:10.740Z,27.54
2022-10-28T04:49:12.435Z,29.03
2022-10-28T04:50:14.480Z,27.70
2022-10-28T04:51:16.324Z,28.25
2022-10-28T04:52:18.153Z,27.45
2022-10-28T04:53:19.828Z,27.78
2022-10-28T04:54:22.069Z,27.73
2022-10-28T04:55:23.972Z,28.09
2022-10-28T04:56:25.617Z,27.84
2022-10-28T04:57:27.343Z,28.03
2022-10-28T04:58:28.971Z,27.73
2022-10-28T04:59:30.598Z,27.61
2022-10-28T05:00:32.380Z,27.72
2022-10-28T05:01:34.116Z,27.52
2022-10-28T05:02:35.987Z,27.60
2022-10-28T05:03:37.883Z,27.52
2022-10-28T05:04:39.639Z,28.78
2022-10-28T05:05:41.321Z,28.06
2022-10-28T05:06:43.039Z,27.58
2022-10-28T05:07:45.424Z,27.65
2022-10-28T05:08:47.107Z,27.21
2022-10-28T05:09:48.739Z,27.11
2022-10-28T05:10:51.173Z,26.95
2022-10-28T05:11:52.887Z,29.25
2022-10-28T05:12:54.623Z,29.39
2022-10-28T05:13:56.325Z,27.45
2022-10-28T05:14:57.926Z,27.42
2022-10-28T05:15:59.584Z,29.79
2022-10-28T05:17:01.236Z,29.91
2022-10-28T05:18:03.027Z,31.66
2022-10-28T05:19:04.844Z,30.65
2022-10-28T05:20:08.240Z,30.02
2022-10-28T05:21:09.896Z,30.42
2022-10-28T05:22:11.589Z,30.17
2022-10-28T05:23:13.370Z,30.05
2022-10-28T05:24:15.008Z,29.85
2022-10-28T05:25:18.501Z,29.82
2022-10-28T05:26:20.212Z,30.05
2022-10-28T05:27:21.856Z,29.70
2022-10-28T05:28:23.609Z,28.49
2022-10-28T05:29:27.694Z,29.18
2022-10-28T05:30:31.410Z,27.59
2022-10-28T05:31:33.046Z,28.70
2022-10-28T05:32:34.733Z,28.69
2022-10-28T05:33:36.477Z,28.56
2022-10-28T05:34:38.301Z,29.73
2022-10-28T05:35:40.127Z,28.88
2022-10-28T05:36:41.771Z,27.95
2022-10-28T05:37:43.834Z,27.75
2022-10-28T05:38:45.606Z,28.58
2022-10-28T05:39:47.411Z,26.92
2022-10-28T05:40:49.140Z,27.14
2022-10-28T05:41:50.785Z,27.58
2022-10-28T05:42:52.805Z,28.36
2022-10-28T05:43:54.701Z,27.96
2022-10-28T05:44:56.373Z,28.78
2022-10-28T05:45:58.342Z,29.35
2022-10-28T05:46:59.988Z,29.94
2022-10-28T05:48:01.895Z,28.00
2022-10-28T05:49:04.321Z,29.03
2022-10-28T05:50:06.365Z,28.71
2022-10-28T05:51:08.104Z,28.48
2022-10-28T05:52:09.776Z,29.30
2022-10-28T05:53:11.421Z,29.85
2022-10-28T05:54:13.090Z,30.23
2022-10-28T05:55:16.210Z,31.10
2022-10-28T05:56:18.586Z,29.99
2022-10-28T05:57:20.257Z,31.17
2022-10-28T05:58:21.973Z,31.13
2022-10-28T05:59:23.764Z,30.45
2022-10-28T06:00:27.272Z,30.71
2022-10-28T06:01:29.143Z,30.54
2022-10-28T06:02:30.939Z,30.41
2022-10-28T06:03:32.719Z,30.01
2022-10-28T06:04:34.620Z,29.62
2022-10-28T06:05:43.981Z,29.78
2022-10-28T06:06:45.768Z,29.34
2022-10-28T06:07:47.513Z,30.12
2022-10-28T06:08:49.314Z,28.49
2022-10-28T06:09:51.194Z,30.05
2022-10-28T06:10:56.330Z,29.92
2022-10-28T06:11:58.146Z,29.97
2022-10-28T06:13:00.342Z,30.70
2022-10-28T06:14:02.332Z,30.76
2022-10-28T06:15:04.552Z,31.23
2022-10-28T06:16:07.179Z,32.49
2022-10-28T06:17:08.826Z,32.56
2022-10-28T06:18:11.274Z,32.12
2022-10-28T06:19:14.135Z,32.07
2022-10-28T06:20:17.662Z,31.15
2022-10-28T06:21:19.347Z,30.81
2022-10-28T06:22:21.658Z,30.48
2022-10-28T06:23:25.720Z,30.87
2022-10-28T06:24:27.453Z,31.14
2022-10-28T06:25:29.135Z,32.05
2022-10-28T06:26:30.796Z,30.78
2022-10-28T06:27:32.459Z,31.14
2022-10-28T06:28:34.423Z,30.99
2022-10-28T06:29:36.093Z,31.67
2022-10-28T06:30:37.762Z,30.45
2022-10-28T06:31:42.964Z,31.48
2022-10-28T06:32:44.624Z,31.32
2022-10-28T06:33:46.226Z,32.27
2022-10-28T06:34:47.855Z,32.03
2022-10-28T06:35:49.625Z,31.95
2022-10-28T06:36:51.788Z,31.67
2022-10-28T06:37:55.311Z,34.20
2022-10-28T06:38:57.282Z,31.34
2022-10-28T06:39:59.309Z,32.63
2022-10-28T06:41:01.656Z,32.00
2022-10-28T06:42:03.722Z,31.77
2022-10-28T06:43:07.104Z,31.42
2022-10-28T06:44:08.835Z,33.05
2022-10-28T06:45:10.493Z,31.92
2022-10-28T06:46:12.429Z,32.39
2022-10-28T06:47:15.947Z,33.01
2022-10-28T06:48:17.653Z,32.54
2022-10-28T06:49:19.322Z,33.12
2022-10-28T06:50:20.967Z,32.00
2022-10-28T06:51:23.746Z,31.94
2022-10-28T06:52:25.421Z,32.32
2022-10-28T06:53:27.155Z,32.87
2022-10-28T06:54:28.831Z,33.48
2022-10-28T06:55:31.420Z,32.84
2022-10-28T06:56:33.449Z,35.78
2022-10-28T06:57:35.145Z,34.37
2022-10-28T06:58:37.215Z,33.27
2022-10-28T06:59:39.709Z,32.44
2022-10-28T07:00:43.691Z,32.55
2022-10-28T07:01:45.535Z,34.35
2022-10-28T07:02:52.622Z,33.20
2022-10-28T07:03:54.333Z,32.79
2022-10-28T07:04:56.004Z,32.57
2022-10-28T07:05:57.666Z,31.65
2022-10-28T07:06:59.342Z,32.66
2022-10-28T07:08:01.031Z,33.03
2022-10-28T07:09:02.772Z,33.28
2022-10-28T07:10:05.909Z,32.09
2022-10-28T07:11:08.340Z,32.92
2022-10-28T07:12:10.114Z,32.65
2022-10-28T07:13:11.914Z,32.43
2022-10-28T07:14:13.556Z,31.41
2022-10-28T07:15:15.286Z,32.95
2022-10-28T07:16:16.994Z,32.34
2022-10-28T07:17:18.645Z,32.65
2022-10-28T07:18:21.341Z,31.95
2022-10-28T07:19:23.022Z,31.73
2022-10-28T07:20:27.363Z,34.72
2022-10-28T07:21:29.865Z,31.97
2022-10-28T07:22:31.551Z,30.76
2022-10-28T07:23:34.215Z,32.20
2022-10-28T07:24:35.887Z,32.54
2022-10-28T07:25:37.966Z,32.11
2022-10-28T07:26:40.061Z,33.02
2022-10-28T07:27:41.721Z,33.39
2022-10-28T07:28:43.401Z,32.21
2022-10-28T07:29:45.189Z,32.91
2022-10-28T07:30:46.975Z,33.74
2022-10-28T07:31:48.735Z,32.91
2022-10-28T07:32:50.435Z,32.76
2022-10-28T07:33:53.523Z,32.03
2022-10-28T07:34:55.195Z,31.60
2022-10-28T07:35:56.929Z,32.11
2022-10-28T07:36:58.649Z,33.17
2022-10-28T07:38:00.395Z,31.63
2022-10-28T07:39:02.374Z,32.19
2022-10-28T07:40:04.693Z,31.90
2022-10-28T07:41:09.275Z,30.77
2022-10-28T07:42:11.034Z,32.55
2022-10-28T07:43:12.710Z,31.91
2022-10-28T07:44:14.832Z,32.91
2022-10-28T07:45:17.921Z,31.34
2022-10-28T07:46:20.033Z,31.23
2022-10-28T07:47:22.256Z,31.06
2022-10-28T07:48:24.504Z,32.31
2022-10-28T07:49:26.266Z,34.25
2022-10-28T07:50:27.891Z,31.46
2022-10-28T07:51:29.967Z,31.21
2022-10-28T07:52:31.815Z,31.48
2022-10-28T07:53:34.446Z,31.39
2022-10-28T07:54:36.134Z,30.70
2022-10-28T07:55:37.909Z,32.38
2022-10-28T07:56:39.760Z,31.92
2022-10-28T07:57:41.430Z,30.33
2022-10-28T07:58:45.125Z,29.36
2022-10-28T07:59:46.761Z,31.02
2022-10-28T08:00:48.787Z,31.12
2022-10-28T08:01:50.654Z,31.28
2022-10-28T08:02:52.319Z,28.93
2022-10-28T08:03:54.087Z,29.69
2022-10-28T08:04:56.822Z,29.19
2022-10-28T08:06:13.313Z,30.13
2022-10-28T08:07:16.301Z,30.19
2022-10-28T08:08:18.031Z,28.60
2022-10-28T08:09:19.726Z,28.79
2022-10-28T08:10:21.379Z,29.14
2022-10-28T08:11:24.394Z,30.68
2022-10-28T08:12:27.611Z,29.35
2022-10-28T08:13:29.221Z,29.79
2022-10-28T08:14:30.853Z,30.21
2022-10-28T08:15:32.852Z,29.36
2022-10-28T08:16:34.562Z,28.32
2022-10-28T08:17:36.332Z,28.19
2022-10-28T08:18:39.424Z,27.61
2022-10-28T08:19:41.106Z,28.11
2022-10-28T08:20:42.742Z,29.29
2022-10-28T08:21:44.400Z,26.70
2022-10-28T08:22:46.663Z,26.18
2022-10-28T08:23:48.832Z,26.98
2022-10-28T08:24:50.483Z,27.14
2022-10-28T08:25:53.529Z,27.67
2022-10-28T08:26:55.318Z,27.26
2022-10-28T08:27:58.076Z,26.98
2022-10-28T08:29:01.535Z,26.39
2022-10-28T08:30:05.120Z,26.03
2022-10-28T08:31:09.549Z,25.37
2022-10-28T08:32:11.515Z,26.00
2022-10-28T08:33:14.971Z,25.68
2022-10-28T08:34:16.811Z,26.14
2022-10-28T08:35:18.551Z,26.14
2022-10-28T08:36:20.223Z,25.88
2022-10-28T08:37:22.234Z,27.14
2022-10-28T08:38:24.225Z,27.01
2022-10-28T08:39:25.839Z,26.21
2022-10-28T08:40:57.105Z,25.65
2022-10-28T08:42:32.903Z,27.76
2022-10-28T08:43:58.084Z,27.89
2022-10-28T08:45:34.620Z,28.87
2022-10-28T08:47:01.950Z,27.30
2022-10-28T08:48:31.326Z,27.83
2022-10-28T08:49:40.019Z,26.54
2022-10-28T08:50:51.632Z,27.53
2022-10-28T08:52:06.031Z,27.38
2022-10-28T08:53:15.518Z,26.65
2022-10-28T08:54:27.499Z,28.37
2022-10-28T08:55:39.825Z,29.16
2022-10-28T08:56:46.140Z,26.29
2022-10-28T08:58:07.432Z,28.12
2022-10-28T08:59:17.618Z,27.10
2022-10-28T09:00:27.116Z,26.98
2022-10-28T09:01:49.131Z,25.98
2022-10-28T09:03:14.820Z,26.25
2022-10-28T09:04:44.844Z,26.05
2022-10-28T09:05:50.086Z,26.44
2022-10-28T09:06:52.393Z,24.97
2022-10-28T09:07:57.511Z,25.56
2022-10-28T09:08:59.333Z,24.17
2022-10-28T09:10:01.023Z,25.12
2022-10-28T09:11:08.857Z,24.57
2022-10-28T09:12:22.432Z,23.34
2022-10-28T09:13:41.588Z,25.03
2022-10-28T09:15:01.440Z,24.19
2022-10-28T09:16:11.235Z,23.99
2022-10-28T09:17:21.311Z,24.84
2022-10-28T09:18:32.287Z,23.95
2022-10-28T09:19:33.912Z,23.70
2022-10-28T09:20:45.516Z,24.08
2022-10-28T09:21:51.009Z,23.15
2022-10-28T09:22:58.994Z,22.57
2022-10-28T09:24:19.494Z,23.04
2022-10-28T09:25:53.354Z,23.17
2022-10-28T09:27:10.115Z,22.66
2022-10-28T09:28:36.255Z,21.22
2022-10-28T09:29:50.519Z,21.64
2022-10-28T09:31:13.734Z,21.10
2022-10-28T09:32:39.290Z,20.76
2022-10-28T09:33:51.233Z,20.52
2022-10-28T09:35:10.866Z,20.08
2022-10-28T09:36:21.245Z,20.12
2022-10-28T09:37:32.863Z,20.54
2022-10-28T09:38:40.788Z,18.77
2022-10-28T09:39:47.995Z,18.78
2022-10-28T09:41:01.097Z,18.52
2022-10-28T09:42:04.609Z,18.40
2022-10-28T09:43:19.388Z,19.34
2022-10-28T09:44:41.396Z,18.24
2022-10-28T09:45:48.153Z,18.58
2022-10-28T09:46:57.108Z,17.97
2022-10-28T09:48:04.177Z,18.11
2022-10-28T09:49:15.475Z,17.53
2022-10-28T09:50:22.761Z,17.84
2022-10-28T09:51:55.268Z,17.53
2022-10-28T09:53:20.398Z,17.72
2022-10-28T09:54:33.025Z,15.95
2022-10-28T09:55:35.101Z,16.67
2022-10-28T09:56:38.033Z,19.41
2022-10-28T09:57:39.684Z,19.28
2022-10-28T09:58:49.333Z,19.42
2022-10-28T09:59:51.546Z,17.19
2022-10-28T10:00:53.264Z,16.77
2022-10-28T10:01:55.199Z,16.21
2022-10-28T10:02:59.021Z,16.55
2022-10-28T10:04:01.488Z,17.22
2022-10-28T10:05:03.602Z,15.81
2022-10-28T10:06:19.216Z,16.67
2022-10-28T10:07:37.562Z,16.90
2022-10-28T10:08:41.516Z,16.11
2022-10-28T10:09:45.036Z,15.99
2022-10-28T10:10:57.599Z,15.48
2022-10-28T10:12:10.526Z,16.54
2022-10-28T10:13:16.992Z,15.11
2022-10-28T10:14:26.807Z,15.16
2022-10-28T10:15:40.235Z,14.36
2022-10-28T10:17:17.301Z,14.32
2022-10-28T10:18:24.838Z,14.71
2022-10-28T10:19:26.539Z,14.57
2022-10-28T10:20:28.218Z,13.57
2022-10-28T10:21:48.336Z,14.57
2022-10-28T10:22:50.280Z,14.26
2022-10-28T10:23:51.900Z,14.49
2022-10-28T10:24:53.515Z,14.08
2022-10-28T10:26:09.679Z,13.33
2022-10-28T10:27:19.831Z,13.46
2022-10-28T10:28:22.300Z,14.38
2022-10-28T10:29:24.956Z,13.45
2022-10-28T10:30:35.397Z,13.13
2022-10-28T10:31:37.035Z,13.15
2022-10-28T10:32:38.738Z,12.42
2022-10-28T10:33:40.988Z,12.46
2022-10-28T10:34:49.854Z,13.04
2022-10-28T10:36:03.988Z,12.82
2022-10-28T10:37:05.714Z,12.64
2022-10-28T10:38:07.936Z,12.79
2022-10-28T10:39:26.844Z,12.51
2022-10-28T10:40:33.569Z,12.58
2022-10-28T10:41:36.697Z,12.15
2022-10-28T10:42:46.571Z,12.44
2022-10-28T10:43:59.233Z,12.01
2022-10-28T10:45:16.106Z,12.94
2022-10-28T10:46:18.003Z,12.34
2022-10-28T10:47:20.900Z,12.41
2022-10-28T10:48:22.608Z,12.37
2022-10-28T10:49:24.281Z,12.28
2022-10-28T10:51:41.288Z,11.28
2022-10-28T10:52:50.793Z,12.98
2022-10-28T10:53:57.820Z,12.36
2022-10-28T10:55:22.188Z,12.14
2022-10-28T10:56:34.053Z,12.15
2022-10-28T10:57:35.971Z,12.09
2022-10-28T10:58:51.618Z,12.69
2022-10-28T10:59:56.346Z,13.51
2022-10-28T11:01:02.565Z,12.26
2022-10-28T11:02:22.371Z,12.21
2022-10-28T11:03:30.274Z,11.72
2022-10-28T11:04:36.755Z,12.20
2022-10-28T11:05:48.019Z,11.78
2022-10-28T11:06:58.155Z,10.59
2022-10-28T11:08:04.936Z,11.00
2022-10-28T11:09:26.980Z,11.22
2022-10-28T11:10:32.282Z,11.13
2022-10-28T11:11:39.926Z,11.02
2022-10-28T11:12:53.315Z,10.25
2022-10-28T11:14:08.843Z,10.45
2022-10-28T11:15:16.621Z,10.89
2022-10-28T11:16:24.612Z,11.29
2022-10-28T11:17:35.507Z,10.83
2022-10-28T11:18:43.836Z,10.86
2022-10-28T11:19:45.436Z,9.95
2022-10-28T11:21:05.637Z,10.26
2022-10-28T11:22:25.642Z,10.19
2022-10-28T11:23:54.669Z,10.73
2022-10-28T11:25:10.195Z,10.25
2022-10-28T11:26:17.973Z,9.60
2022-10-28T11:28:03.071Z,10.08
2022-10-28T11:29:14.853Z,10.32
2022-10-28T11:30:20.679Z,10.40
2022-10-28T11:31:50.152Z,9.92
2022-10-28T11:33:31.952Z,9.92
2022-10-28T11:35:09.081Z,9.62
2022-10-28T11:36:17.679Z,9.74
2022-10-28T11:37:40.921Z,9.18
2022-10-28T11:39:07.735Z,9.11
2022-10-28T11:40:42.465Z,9.97
2022-10-28T11:41:59.975Z,8.90
2022-10-28T11:43:19.636Z,9.31
2022-10-28T11:44:43.756Z,8.64
2022-10-28T11:45:59.469Z,9.36
2022-10-28T11:47:21.737Z,9.47
2022-10-28T11:49:05.106Z,9.14
2022-10-28T11:50:54.509Z,8.77
2022-10-28T11:52:03.260Z,8.95
2022-10-28T11:53:37.220Z,8.32
2022-10-28T11:55:14.300Z,9.25
2022-10-28T11:56:28.090Z,8.87
2022-10-28T11:58:05.196Z,8.27
2022-10-28T11:59:30.364Z,8.64
2022-10-28T12:00:53.749Z,7.90
2022-10-28T12:02:07.507Z,8.65
2022-10-28T12:03:27.705Z,8.24
2022-10-28T12:04:53.967Z,8.22
2022-10-28T12:06:15.140Z,7.56
2022-10-28T12:08:00.557Z,7.62
2022-10-28T12:09:32.773Z,7.20
2022-10-28T12:10:50.539Z,7.63
2022-10-28T12:12:05.682Z,8.22
2022-10-28T12:13:24.020Z,7.99
2022-10-28T12:14:44.638Z,7.82
2022-10-28T12:15:59.668Z,7.89
2022-10-28T12:17:30.465Z,7.00
2022-10-28T12:18:47.948Z,7.51
2022-10-28T12:20:20.697Z,7.48
2022-10-28T12:23:00.999Z,7.16
2022-10-28T12:24:10.797Z,6.60
2022-10-28T12:25:23.946Z,6.74
2022-10-28T12:26:40.108Z,7.01
2022-10-28T12:27:48.023Z,7.01
2022-10-28T12:28:57.215Z,7.49
2022-10-28T12:30:23.773Z,7.02
2022-10-28T12:31:30.813Z,6.86
2022-10-28T12:32:36.085Z,6.67
2022-10-28T12:33:50.225Z,6.47
2022-10-28T12:35:02.066Z,6.21
2022-10-28T12:36:03.933Z,6.41
2022-10-28T12:37:14.087Z,6.61
2022-10-28T12:38:34.479Z,5.55
2022-10-28T12:39:49.597Z,6.40
2022-10-28T12:41:25.884Z,6.29
2022-10-28T12:42:55.067Z,6.53
2022-10-28T12:44:13.982Z,6.31
2022-10-28T12:45:19.117Z,5.74
2022-10-28T12:46:53.987Z,6.36
2022-10-28T12:48:12.139Z,6.59
2022-10-28T12:49:23.950Z,6.83
2022-10-28T12:50:53.001Z,6.73
2022-10-28T12:52:02.748Z,6.22
2022-10-28T12:53:04.256Z,6.09
2022-10-28T12:54:16.147Z,5.87
2022-10-28T12:55:40.993Z,6.40
2022-10-28T12:56:50.627Z,5.92
2022-10-28T12:58:02.509Z,6.76
2022-10-28T12:59:17.283Z,7.34
2022-10-28T13:00:40.529Z,7.23
2022-10-28T13:01:48.824Z,7.13
2022-10-28T13:03:00.694Z,7.55
2022-10-28T13:04:03.188Z,6.81
2022-10-28T13:05:06.590Z,6.50
2022-10-28T13:06:25.770Z,6.45
2022-10-28T13:07:58.664Z,5.91
2022-10-28T13:09:22.089Z,6.28
2022-10-28T13:10:39.948Z,5.96
2022-10-28T13:12:00.886Z,6.06
2022-10-28T13:13:10.941Z,6.12
2022-10-28T13:14:28.944Z,6.53
2022-10-28T13:15:55.692Z,6.34
2022-10-28T13:17:30.595Z,6.10
2022-10-28T13:18:58.216Z,6.41
2022-10-28T13:20:11.444Z,6.33
2022-10-28T13:21:49.814Z,6.68
2022-10-28T13:22:51.345Z,5.90
2022-10-28T13:24:27.295Z,5.95
2022-10-28T13:25:28.818Z,6.49
2022-10-28T13:26:36.753Z,6.46
2022-10-28T13:27:39.284Z,6.88
2022-10-28T13:28:55.046Z,7.08
2022-10-28T13:30:00.713Z,6.11
2022-10-28T13:31:07.206Z,6.70
2022-10-28T13:32:39.891Z,6.26
2022-10-28T13:33:57.951Z,6.20
2022-10-28T13:35:10.334Z,6.70
2022-10-28T13:36:17.874Z,6.64
2022-10-28T13:37:23.997Z,5.68
2022-10-28T13:38:27.199Z,6.30
2022-10-28T13:39:28.789Z,6.20
2022-10-28T13:40:30.337Z,6.07
2022-10-28T13:41:37.680Z,5.90
2022-10-28T13:42:42.037Z,5.73
2022-10-28T13:43:49.560Z,5.74
2022-10-28T13:45:04.806Z,5.79
2022-10-28T13:46:06.563Z,5.75
2022-10-28T13:47:17.251Z,5.25
2022-10-28T13:48:45.371Z,5.87
2022-10-28T13:50:08.916Z,5.83
2022-10-28T13:51:10.689Z,5.55
2022-10-28T13:52:13.241Z,5.86
2022-10-28T13:53:26.686Z,5.60
2022-10-28T13:54:53.891Z,5.69
2022-10-28T13:55:58.853Z,5.95
2022-10-28T13:57:12.659Z,5.61
2022-10-28T13:58:32.662Z,5.71
2022-10-28T14:00:00.987Z,5.78
2022-10-28T14:01:36.752Z,5.74
2022-10-28T14:02:42.251Z,5.06
2022-10-28T14:03:52.005Z,5.83
2022-10-28T14:05:02.837Z,5.54
2022-10-28T14:06:04.859Z,5.42
2022-10-28T14:07:31.552Z,5.35
2022-10-28T14:08:40.056Z,5.47
2022-10-28T14:09:43.544Z,5.74
2022-10-28T14:11:02.766Z,5.24
2022-10-28T14:12:17.351Z,6.06
2022-10-28T14:13:22.484Z,5.74
2022-10-28T14:14:24.215Z,5.29
2022-10-28T14:15:33.776Z,5.66
2022-10-28T14:16:44.883Z,5.69
2022-10-28T14:18:22.652Z,6.61
2022-10-28T14:19:28.889Z,5.25
2022-10-28T14:20:38.157Z,5.81
2022-10-28T14:21:45.677Z,5.42
2022-10-28T14:22:47.586Z,5.47
2022-10-28T14:24:11.327Z,5.39
2022-10-28T14:25:40.892Z,5.17
2022-10-28T14:27:28.744Z,5.71
2022-10-28T14:28:30.479Z,5.19
2022-10-28T14:29:46.604Z,5.86
2022-10-28T14:31:08.177Z,5.63
2022-10-28T14:32:31.695Z,5.47
2022-10-28T14:33:42.331Z,5.23
2022-10-28T14:34:46.039Z,5.87
2022-10-28T14:35:55.471Z,5.21
2022-10-28T14:37:10.350Z,5.52
2022-10-28T14:38:38.621Z,5.45
2022-10-28T14:39:59.590Z,5.20
2022-10-28T14:41:25.819Z,5.24
2022-10-28T14:44:21.788Z,4.89
2022-10-28T14:45:44.881Z,4.92
2022-10-28T14:47:23.911Z,5.47
2022-10-28T14:48:44.516Z,5.52
2022-10-28T14:50:12.789Z,5.33
2022-10-28T14:51:22.590Z,5.77
2022-10-28T14:52:25.545Z,5.28
2022-10-28T14:53:35.512Z,5.02
2022-10-28T14:54:46.741Z,5.08
2022-10-28T14:56:00.596Z,5.23